createdAt,value
2022-10-22T00:00:05.944Z,7.67
2022-10-22T00:02:54.703Z,7.68
2022-10-22T00:05:24.902Z,7.71
2022-10-22T00:07:53.636Z,7.74
2022-10-22T00:10:22.663Z,7.76
2022-10-22T00:12:51.267Z,7.78
2022-10-22T00:15:20.266Z,7.80
2022-10-22T00:17:49.340Z,7.81
2022-10-22T00:20:21.008Z,7.83
2022-10-22T00:25:24.680Z,7.87
2022-10-22T00:27:53.374Z,7.88
2022-10-22T00:30:22.739Z,7.91
2022-10-22T00:32:51.411Z,7.91
2022-10-22T00:35:19.930Z,7.94
2022-10-22T00:37:48.496Z,7.95
2022-10-22T00:40:17.668Z,7.96
2022-10-22T00:42:49.467Z,7.98
2022-10-22T00:45:27.131Z,7.99
2022-10-22T00:48:00.115Z,8.01
2022-10-22T00:50:34.027Z,8.03
2022-10-22T00:53:04.368Z,8.05
2022-10-22T00:55:37.320Z,8.08
2022-10-22T00:58:08.377Z,8.10
2022-10-22T01:00:41.622Z,8.12
2022-10-22T01:03:14.180Z,8.13
2022-10-22T01:05:47.812Z,8.14
2022-10-22T01:08:25.671Z,8.16
2022-10-22T01:11:08.365Z,8.18
2022-10-22T01:13:50.533Z,8.21
2022-10-22T01:16:26.022Z,8.22
2022-10-22T01:19:05.245Z,8.24
2022-10-22T01:21:40.921Z,8.25
2022-10-22T01:24:38.428Z,8.28
2022-10-22T01:27:30.602Z,8.29
2022-10-22T01:30:03.613Z,8.31
2022-10-22T01:32:36.695Z,8.32
2022-10-22T01:35:10.295Z,8.33
2022-10-22T01:37:45.532Z,8.33
2022-10-22T01:40:19.382Z,8.34
2022-10-22T01:42:58.789Z,8.34
2022-10-22T01:45:30.160Z,8.34
2022-10-22T01:48:12.266Z,8.35
2022-10-22T01:51:01.191Z,8.35
2022-10-22T01:53:42.563Z,8.35
2022-10-22T01:56:34.527Z,8.37
2022-10-22T01:59:10.522Z,8.39
2022-10-22T02:01:54.104Z,8.40
2022-10-22T02:04:27.896Z,8.40
2022-10-22T02:07:01.259Z,8.42
2022-10-22T02:09:32.029Z,8.42
2022-10-22T02:12:03.534Z,8.42
2022-10-22T02:14:34.015Z,8.42
2022-10-22T02:17:03.936Z,8.42
2022-10-22T02:19:43.500Z,8.43
2022-10-22T02:22:13.703Z,8.43
2022-10-22T02:24:44.742Z,8.44
2022-10-22T02:27:25.837Z,8.43
2022-10-22T02:30:02.838Z,8.44
2022-10-22T02:32:43.008Z,8.43
2022-10-22T02:35:14.949Z,8.44
2022-10-22T02:37:44.493Z,8.45
2022-10-22T02:40:13.722Z,8.44
2022-10-22T02:42:46.179Z,8.45
2022-10-22T02:45:15.850Z,8.45
2022-10-22T02:47:44.381Z,8.46
2022-10-22T02:50:13.343Z,8.48
2022-10-22T02:52:44.180Z,8.47
2022-10-22T02:55:15.319Z,8.48
2022-10-22T02:57:45.314Z,8.49
2022-10-22T03:00:15.837Z,8.50
2022-10-22T03:02:45.432Z,8.49
2022-10-22T03:05:13.911Z,8.50
2022-10-22T03:07:43.271Z,8.50
2022-10-22T03:10:14.568Z,8.50
2022-10-22T03:12:43.367Z,8.52
2022-10-22T03:15:12.111Z,8.52
2022-10-22T03:17:42.906Z,8.53
2022-10-22T03:20:11.638Z,8.54
2022-10-22T03:22:42.731Z,8.54
2022-10-22T03:25:18.279Z,8.55
2022-10-22T03:27:48.961Z,8.57
2022-10-22T03:30:17.897Z,8.57
2022-10-22T03:32:46.740Z,8.59
2022-10-22T03:35:15.431Z,8.61
2022-10-22T03:37:47.031Z,8.60
2022-10-22T03:40:19.612Z,8.60
2022-10-22T03:42:48.199Z,8.61
2022-10-22T03:45:17.269Z,8.60
2022-10-22T03:47:52.486Z,8.62
2022-10-22T03:50:21.371Z,8.62
2022-10-22T03:52:53.866Z,8.62
2022-10-22T03:55:22.671Z,8.63
2022-10-22T03:57:53.993Z,8.65
2022-10-22T04:00:22.819Z,8.65
2022-10-22T04:02:51.409Z,8.67
2022-10-22T04:05:20.158Z,8.67
2022-10-22T04:07:48.895Z,8.67
2022-10-22T04:10:18.049Z,8.69
2022-10-22T04:12:48.314Z,8.70
2022-10-22T04:15:17.667Z,8.70
2022-10-22T04:17:46.533Z,8.71
2022-10-22T04:20:17.800Z,8.71
2022-10-22T04:22:46.391Z,8.71
2022-10-22T04:25:17.562Z,8.72
2022-10-22T04:27:51.378Z,8.73
2022-10-22T04:30:20.339Z,8.73
2022-10-22T04:32:48.937Z,8.75
2022-10-22T04:35:17.976Z,8.76
2022-10-22T04:37:47.188Z,8.76
2022-10-22T04:40:18.201Z,8.77
2022-10-22T04:42:49.935Z,8.78
2022-10-22T04:45:21.777Z,8.80
2022-10-22T04:47:50.961Z,8.80
2022-10-22T04:50:19.657Z,8.81
2022-10-22T04:52:48.646Z,8.81
2022-10-22T04:55:22.669Z,8.83
2022-10-22T04:57:50.697Z,8.82
2022-10-22T05:00:23.721Z,8.81
2022-10-22T05:02:52.423Z,8.84
2022-10-22T05:05:24.178Z,8.83
2022-10-22T05:07:52.860Z,8.84
2022-10-22T05:10:24.551Z,8.87
2022-10-22T05:12:58.751Z,8.87
2022-10-22T05:15:31.478Z,8.88
2022-10-22T05:18:03.576Z,8.90
2022-10-22T05:20:33.512Z,8.89
2022-10-22T05:23:04.836Z,8.91
2022-10-22T05:25:37.553Z,8.92
2022-10-22T05:28:06.689Z,8.93
2022-10-22T05:30:38.567Z,8.94
2022-10-22T05:33:11.983Z,8.95
2022-10-22T05:35:46.639Z,8.95
2022-10-22T05:38:18.769Z,8.98
2022-10-22T05:41:05.565Z,9.01
2022-10-22T05:43:35.301Z,9.01
2022-10-22T05:46:07.400Z,9.03
2022-10-22T05:48:38.198Z,9.07
2022-10-22T05:51:10.378Z,9.09
2022-10-22T05:53:43.921Z,9.10
2022-10-22T05:56:14.977Z,9.12
2022-10-22T05:58:44.727Z,9.15
2022-10-22T06:01:19.128Z,9.19
2022-10-22T06:03:53.719Z,9.22
2022-10-22T06:06:30.626Z,9.25
2022-10-22T06:09:06.577Z,9.29
2022-10-22T06:11:42.767Z,9.33
2022-10-22T06:14:20.682Z,9.37
2022-10-22T06:16:50.524Z,9.40
2022-10-22T06:19:26.208Z,9.41
2022-10-22T06:21:58.733Z,9.43
2022-10-22T06:24:27.625Z,9.44
2022-10-22T06:26:59.480Z,9.46
2022-10-22T06:29:28.460Z,9.49
2022-10-22T06:32:00.881Z,9.50
2022-10-22T06:34:31.013Z,9.51
2022-10-22T06:36:59.757Z,9.53
2022-10-22T06:39:31.764Z,9.54
2022-10-22T06:42:01.151Z,9.56
2022-10-22T06:44:31.854Z,9.60
2022-10-22T06:47:03.409Z,9.64
2022-10-22T06:49:35.384Z,9.66
2022-10-22T06:52:05.079Z,9.69
2022-10-22T06:54:34.024Z,9.72
2022-10-22T06:57:02.702Z,9.77
2022-10-22T06:59:31.773Z,9.79
2022-10-22T07:02:00.286Z,9.82
2022-10-22T07:04:30.047Z,9.83
2022-10-22T07:07:01.673Z,9.83
2022-10-22T07:09:30.505Z,9.84
2022-10-22T07:11:59.511Z,9.85
2022-10-22T07:14:30.937Z,9.82
2022-10-22T07:17:06.087Z,9.83
2022-10-22T07:19:37.727Z,9.82
2022-10-22T07:22:09.066Z,9.82
2022-10-22T07:24:37.975Z,9.83
2022-10-22T07:27:09.451Z,9.85
2022-10-22T07:29:41.714Z,9.88
2022-10-22T07:32:20.609Z,9.89
2022-10-22T07:34:54.136Z,9.92
2022-10-22T07:37:24.111Z,9.94
2022-10-22T07:39:53.300Z,9.95
2022-10-22T07:42:23.121Z,9.97
2022-10-22T07:44:54.283Z,9.99
2022-10-22T07:47:23.445Z,10.03
2022-10-22T07:49:52.350Z,10.09
2022-10-22T07:52:21.182Z,10.11
2022-10-22T07:54:50.138Z,10.14
2022-10-22T07:57:18.809Z,10.17
2022-10-22T07:59:57.955Z,10.20
2022-10-22T08:05:16.786Z,10.27
2022-10-22T08:07:48.188Z,10.31
2022-10-22T08:10:16.771Z,10.35
2022-10-22T08:12:45.558Z,10.39
2022-10-22T08:15:14.849Z,10.46
2022-10-22T08:17:46.042Z,10.49
2022-10-22T08:20:14.816Z,10.51
2022-10-22T08:22:45.990Z,10.52
2022-10-22T08:25:17.495Z,10.55
2022-10-22T08:27:47.644Z,10.59
2022-10-22T08:30:16.645Z,10.61
2022-10-22T08:32:49.388Z,10.63
2022-10-22T08:35:20.320Z,10.66
2022-10-22T08:37:49.464Z,10.73
2022-10-22T08:40:31.218Z,10.78
2022-10-22T08:43:47.325Z,10.82
2022-10-22T08:46:49.158Z,10.88
2022-10-22T08:49:21.579Z,10.90
2022-10-22T08:51:50.645Z,10.91
2022-10-22T08:54:30.042Z,10.95
2022-10-22T08:57:17.102Z,10.96
2022-10-22T09:00:00.020Z,10.98
2022-10-22T09:02:42.211Z,11.00
2022-10-22T09:05:33.438Z,11.04
2022-10-22T09:08:05.588Z,11.04
2022-10-22T09:10:38.340Z,11.05
2022-10-22T09:13:11.854Z,11.09
2022-10-22T09:15:43.766Z,11.09
2022-10-22T09:18:32.356Z,11.12
2022-10-22T09:21:15.017Z,11.17
2022-10-22T09:23:56.413Z,11.22
2022-10-22T09:29:54.078Z,11.38
2022-10-22T09:32:23.422Z,11.49
2022-10-22T09:34:57.746Z,11.59
2022-10-22T09:37:29.104Z,11.66
2022-10-22T09:40:05.824Z,11.75
2022-10-22T09:42:35.042Z,11.86
2022-10-22T09:45:04.658Z,11.97
2022-10-22T09:48:00.447Z,12.01
2022-10-22T09:50:38.593Z,12.07
2022-10-22T09:53:18.339Z,12.14
2022-10-22T09:58:25.452Z,12.19
2022-10-22T10:01:01.048Z,12.23
2022-10-22T10:03:32.963Z,12.31
2022-10-22T10:06:07.003Z,12.36
2022-10-22T10:08:35.731Z,12.37
2022-10-22T10:11:10.809Z,12.34
2022-10-22T10:14:01.879Z,12.35
2022-10-22T10:16:52.883Z,12.33
2022-10-22T10:19:35.840Z,12.32
2022-10-22T10:22:22.073Z,12.30
2022-10-22T10:25:02.918Z,12.29
2022-10-22T10:27:45.951Z,12.25
2022-10-22T10:30:17.885Z,12.20
2022-10-22T10:33:11.444Z,12.17
2022-10-22T10:35:54.769Z,12.13
2022-10-22T10:38:40.251Z,12.10
2022-10-22T10:41:23.759Z,12.09
2022-10-22T10:44:16.424Z,12.07
2022-10-22T10:46:57.981Z,12.08
2022-10-22T10:49:30.594Z,12.09
2022-10-22T10:52:08.140Z,12.10
2022-10-22T10:54:47.875Z,12.11
2022-10-22T10:57:32.706Z,12.13
2022-10-22T11:00:10.058Z,12.12
2022-10-22T11:03:18.919Z,12.12
2022-10-22T11:05:54.250Z,12.10
2022-10-22T11:08:28.333Z,12.08
2022-10-22T11:11:07.987Z,12.08
2022-10-22T11:13:43.207Z,12.07
2022-10-22T11:16:23.214Z,12.07
2022-10-22T11:19:03.053Z,12.10
2022-10-22T11:21:42.391Z,12.13
2022-10-22T11:24:22.759Z,12.17
2022-10-22T11:26:58.129Z,12.23
2022-10-22T11:29:35.055Z,12.26
2022-10-22T11:32:16.585Z,12.30
2022-10-22T11:34:56.818Z,12.32
2022-10-22T11:37:32.600Z,12.32
2022-10-22T11:40:08.669Z,12.32
2022-10-22T11:42:42.421Z,12.32
2022-10-22T11:45:29.320Z,12.31
2022-10-22T11:48:16.041Z,12.33
2022-10-22T11:50:56.218Z,12.38
2022-10-22T11:53:32.329Z,12.42
2022-10-22T11:56:19.699Z,12.45
2022-10-22T11:58:59.634Z,12.48
2022-10-22T12:01:40.448Z,12.51
2022-10-22T12:04:22.089Z,12.53
2022-10-22T12:07:09.449Z,12.55
2022-10-22T12:12:35.919Z,12.63
2022-10-22T12:15:31.912Z,12.64
2022-10-22T12:18:04.160Z,12.64
2022-10-22T12:20:32.741Z,12.66
2022-10-22T12:23:02.265Z,12.64
2022-10-22T12:25:36.108Z,12.63
2022-10-22T12:28:15.678Z,12.61
2022-10-22T12:30:45.348Z,12.62
2022-10-22T12:33:23.288Z,12.61
2022-10-22T12:35:57.190Z,12.61
2022-10-22T12:38:25.949Z,12.63
2022-10-22T12:40:57.274Z,12.64
2022-10-22T12:43:30.286Z,12.66
2022-10-22T12:46:00.205Z,12.66
2022-10-22T12:48:36.298Z,12.67
2022-10-22T12:51:09.116Z,12.69
2022-10-22T12:53:43.772Z,12.70
2022-10-22T12:56:15.376Z,12.71
2022-10-22T12:59:02.955Z,12.71
2022-10-22T13:01:42.817Z,12.70
2022-10-22T13:04:32.253Z,12.68
2022-10-22T13:07:22.362Z,12.65
2022-10-22T13:10:00.163Z,12.60
2022-10-22T13:12:36.666Z,12.57
2022-10-22T13:15:23.554Z,12.55
2022-10-22T13:18:03.492Z,12.54
2022-10-22T13:20:32.883Z,12.53
2022-10-22T13:23:04.158Z,12.52
2022-10-22T13:25:34.552Z,12.53
2022-10-22T13:28:24.521Z,12.50
2022-10-22T13:30:56.848Z,12.48
2022-10-22T13:33:29.379Z,12.45
2022-10-22T13:36:01.615Z,12.44
2022-10-22T13:38:41.924Z,12.41
2022-10-22T13:41:26.396Z,12.37
2022-10-22T13:44:00.689Z,12.37
2022-10-22T13:46:35.369Z,12.36
2022-10-22T13:49:05.128Z,12.34
2022-10-22T13:51:37.002Z,12.33
2022-10-22T13:54:13.680Z,12.32
2022-10-22T13:56:44.662Z,12.32
2022-10-22T13:59:15.402Z,12.32
2022-10-22T14:01:54.437Z,12.32
2022-10-22T14:04:26.434Z,12.32
2022-10-22T14:06:57.673Z,12.31
2022-10-22T14:09:29.419Z,12.31
2022-10-22T14:11:58.099Z,12.29
2022-10-22T14:14:27.527Z,12.28
2022-10-22T14:16:56.419Z,12.27
2022-10-22T14:19:25.776Z,12.26
2022-10-22T14:22:12.302Z,12.27
2022-10-22T14:25:23.247Z,12.27
2022-10-22T14:28:10.882Z,12.29
2022-10-22T14:30:59.100Z,12.29
2022-10-22T14:33:49.088Z,12.32
2022-10-22T14:36:40.707Z,12.33
2022-10-22T14:39:40.869Z,12.33
2022-10-22T14:42:21.387Z,12.33
2022-10-22T14:45:17.535Z,12.34
2022-10-22T14:48:09.541Z,12.33
2022-10-22T14:50:57.902Z,12.31
